createdAt,value
2018-04-07T00:02:00.630Z,3.00
2018-04-07T00:04:35.357Z,3.27
2018-04-07T00:07:10.750Z,2.75
2018-04-07T00:09:45.490Z,2.73
2018-04-07T00:12:20.712Z,2.80
2018-04-07T00:14:55.638Z,2.80
2018-04-07T00:17:30.307Z,2.90
2018-04-07T00:20:04.869Z,3.10
2018-04-07T00:22:40.198Z,2.43
2018-04-07T00:25:14.492Z,3.33
2018-04-07T00:27:49.704Z,2.90
2018-04-07T00:30:25.005Z,3.27
2018-04-07T00:33:00.015Z,3.20
2018-04-07T00:35:34.863Z,3.30
2018-04-07T00:38:10.914Z,3.00
2018-04-07T00:40:46.072Z,3.08
2018-04-07T00:43:20.863Z,2.70
2018-04-07T00:45:55.982Z,3.10
2018-04-07T00:48:30.603Z,3.10
2018-04-07T00:51:05.622Z,3.23
2018-04-07T00:53:40.383Z,3.00
2018-04-07T00:56:15.546Z,2.78
2018-04-07T00:58:50.618Z,3.50
2018-04-07T01:01:25.906Z,3.30
2018-04-07T01:04:00.720Z,4.00
2018-04-07T01:06:35.792Z,3.00
2018-04-07T01:09:11.011Z,3.10
2018-04-07T01:11:45.906Z,3.00
2018-04-07T01:14:20.472Z,2.60
2018-04-07T01:16:55.678Z,3.07
2018-04-07T01:19:30.569Z,2.70
2018-04-07T01:22:05.387Z,3.10
2018-04-07T01:24:40.670Z,3.30
2018-04-07T01:27:15.868Z,3.40
2018-04-07T01:29:50.700Z,2.97
2018-04-07T01:32:25.874Z,3.10
2018-04-07T01:35:00.674Z,2.67
2018-04-07T01:37:35.591Z,3.10
2018-04-07T01:40:10.834Z,3.20
2018-04-07T01:42:45.716Z,3.00
2018-04-07T01:45:20.300Z,3.40
2018-04-07T01:47:55.733Z,2.87
2018-04-07T01:50:30.809Z,3.67
2018-04-07T01:53:05.789Z,3.20
2018-04-07T01:55:40.698Z,2.93
2018-04-07T01:58:15.303Z,3.08
2018-04-07T02:00:50.788Z,3.97
2018-04-07T02:03:25.277Z,3.90
2018-04-07T02:06:00.538Z,3.55
2018-04-07T02:08:35.247Z,3.20
2018-04-07T02:11:11.087Z,3.37
2018-04-07T02:13:46.761Z,3.67
2018-04-07T02:16:21.891Z,3.60
2018-04-07T02:18:56.837Z,3.57
2018-04-07T02:21:31.720Z,3.08
2018-04-07T02:24:07.238Z,3.67
2018-04-07T02:26:42.659Z,4.47
2018-04-07T02:29:17.855Z,3.42
2018-04-07T02:31:52.850Z,3.77
2018-04-07T02:34:27.692Z,2.97
2018-04-07T02:37:02.950Z,3.30
2018-04-07T02:39:37.886Z,3.47
2018-04-07T02:42:13.158Z,3.70
2018-04-07T02:44:48.299Z,2.93
2018-04-07T02:47:23.196Z,3.27
2018-04-07T02:49:58.319Z,3.53
2018-04-07T02:52:33.822Z,3.77
2018-04-07T02:55:08.498Z,3.40
2018-04-07T02:57:43.299Z,3.03
2018-04-07T03:00:18.889Z,3.40
2018-04-07T03:02:54.319Z,3.13
2018-04-07T03:05:29.383Z,3.70
2018-04-07T03:08:03.872Z,2.97
2018-04-07T03:10:38.910Z,2.97
2018-04-07T03:13:13.595Z,3.60
2018-04-07T03:15:49.019Z,3.50
2018-04-07T03:18:23.970Z,3.87
2018-04-07T03:20:58.938Z,3.90
2018-04-07T03:23:33.899Z,3.60
2018-04-07T03:26:08.790Z,3.43
2018-04-07T03:28:43.919Z,4.30
2018-04-07T03:31:19.312Z,4.03
2018-04-07T03:33:54.076Z,3.20
2018-04-07T03:36:29.154Z,3.33
2018-04-07T03:39:03.275Z,3.50
2018-04-07T03:41:37.969Z,3.17
2018-04-07T03:44:13.304Z,3.77
2018-04-07T03:46:48.066Z,3.83
2018-04-07T03:49:23.134Z,4.63
2018-04-07T03:51:58.213Z,3.57
2018-04-07T03:54:33.286Z,4.20
2018-04-07T03:57:08.220Z,3.80
2018-04-07T03:59:43.119Z,4.43
2018-04-07T04:02:18.377Z,4.43
2018-04-07T04:04:54.254Z,3.37
2018-04-07T04:07:29.299Z,3.40
2018-04-07T04:10:03.693Z,3.70
2018-04-07T04:12:39.259Z,3.33
2018-04-07T04:15:14.150Z,4.37
2018-04-07T04:17:49.085Z,3.70
2018-04-07T04:20:25.001Z,3.70
2018-04-07T04:22:59.480Z,4.33
2018-04-07T04:25:34.501Z,4.57
2018-04-07T04:28:09.314Z,3.63
2018-04-07T04:30:44.194Z,3.55
2018-04-07T04:33:19.142Z,3.83
2018-04-07T04:35:54.149Z,4.70
2018-04-07T04:38:29.121Z,2.93
2018-04-07T04:41:03.758Z,3.37
2018-04-07T04:43:38.445Z,3.90
2018-04-07T04:46:13.581Z,3.50
2018-04-07T04:48:48.716Z,3.70
2018-04-07T04:51:24.349Z,3.62
2018-04-07T04:53:59.266Z,3.67
2018-04-07T04:56:33.705Z,3.65
2018-04-07T04:59:08.674Z,3.87
2018-04-07T05:01:43.782Z,5.43
2018-04-07T05:04:19.502Z,3.70
2018-04-07T05:06:54.394Z,3.40
2018-04-07T05:09:29.369Z,4.10
2018-04-07T05:12:04.351Z,3.50
2018-04-07T05:14:39.240Z,3.47
2018-04-07T05:17:13.826Z,3.60
2018-04-07T05:19:48.954Z,3.30
2018-04-07T05:22:24.612Z,3.42
2018-04-07T05:24:59.639Z,4.10
2018-04-07T05:27:34.524Z,3.93
2018-04-07T05:30:10.962Z,3.97
2018-04-07T05:32:46.297Z,3.70
2018-04-07T05:35:21.498Z,4.00
2018-04-07T05:37:58.223Z,3.67
2018-04-07T05:40:33.362Z,3.30
2018-04-07T05:43:07.739Z,4.23
2018-04-07T05:45:42.521Z,4.67
2018-04-07T05:48:17.563Z,3.65
2018-04-07T05:50:52.450Z,3.77
2018-04-07T05:53:26.955Z,4.23
2018-04-07T05:56:02.266Z,3.95
2018-04-07T05:58:37.353Z,3.80
2018-04-07T06:01:12.084Z,4.40
2018-04-07T06:03:46.894Z,4.27
2018-04-07T06:06:22.012Z,3.73
2018-04-07T06:08:57.461Z,4.90
2018-04-07T06:11:32.050Z,3.80
2018-04-07T06:14:07.506Z,4.10
2018-04-07T06:16:42.294Z,3.05
2018-04-07T06:19:17.659Z,3.50
2018-04-07T06:21:52.034Z,3.83
2018-04-07T06:24:26.983Z,4.53
2018-04-07T06:27:02.100Z,3.00
2018-04-07T06:29:36.885Z,3.90
2018-04-07T06:32:11.952Z,3.63
2018-04-07T06:34:46.762Z,4.13
2018-04-07T06:37:21.734Z,3.72
2018-04-07T06:39:56.919Z,3.23
2018-04-07T06:42:32.017Z,3.80
2018-04-07T06:45:06.897Z,4.97
2018-04-07T06:47:41.934Z,4.40
2018-04-07T06:50:16.866Z,4.40
2018-04-07T06:52:51.850Z,4.33
2018-04-07T06:55:27.258Z,4.40
2018-04-07T06:58:01.725Z,4.00
2018-04-07T07:00:36.756Z,4.00
2018-04-07T07:03:12.061Z,3.13
2018-04-07T07:05:46.791Z,3.50
2018-04-07T07:08:21.986Z,4.37
2018-04-07T07:10:56.939Z,5.53
2018-04-07T07:13:31.828Z,5.00
2018-04-07T07:16:07.242Z,4.03
2018-04-07T07:18:41.947Z,4.73
2018-04-07T07:21:16.846Z,5.17
2018-04-07T07:23:52.050Z,4.83
2018-04-07T07:26:26.591Z,4.47
2018-04-07T07:29:00.975Z,5.30
2018-04-07T07:31:36.508Z,4.90
2018-04-07T07:34:12.039Z,4.60
2018-04-07T07:36:47.562Z,4.63
2018-04-07T07:39:22.737Z,5.37
2018-04-07T07:41:57.880Z,5.23
2018-04-07T07:44:32.774Z,4.10
2018-04-07T07:47:07.878Z,5.23
2018-04-07T07:49:42.671Z,4.90
2018-04-07T07:52:17.961Z,4.90
2018-04-07T07:54:52.953Z,4.57
2018-04-07T07:57:28.028Z,5.70
2018-04-07T08:00:03.490Z,5.53
2018-04-07T08:02:38.083Z,5.40
2018-04-07T08:05:13.361Z,6.43
2018-04-07T08:07:47.806Z,6.97
2018-04-07T08:10:23.111Z,5.00
2018-04-07T08:12:57.763Z,6.53
2018-04-07T08:15:33.055Z,5.63
2018-04-07T08:18:07.850Z,4.00
2018-04-07T08:20:43.006Z,5.63
2018-04-07T08:23:18.014Z,5.10
2018-04-07T08:25:53.096Z,5.30
2018-04-07T08:28:27.878Z,4.97
2018-04-07T08:31:03.058Z,5.97
2018-04-07T08:33:38.042Z,5.53
2018-04-07T08:36:14.733Z,5.50
2018-04-07T08:38:49.102Z,5.50
2018-04-07T08:41:24.122Z,5.00
2018-04-07T08:43:59.162Z,4.30
2018-04-07T08:46:33.870Z,4.83
2018-04-07T08:49:08.454Z,5.60
2018-04-07T08:51:43.147Z,5.33
2018-04-07T08:54:18.086Z,5.43
2018-04-07T08:56:53.743Z,5.57
2018-04-07T08:59:28.770Z,6.82
2018-04-07T09:02:03.910Z,6.07
2018-04-07T09:04:38.887Z,6.17
2018-04-07T09:07:14.202Z,5.97
2018-04-07T09:09:49.051Z,6.50
2018-04-07T09:12:23.157Z,5.70
2018-04-07T09:14:58.469Z,5.53
2018-04-07T09:17:33.260Z,5.30
2018-04-07T09:20:08.214Z,6.23
2018-04-07T09:22:43.389Z,6.70
2018-04-07T09:25:18.294Z,6.18
2018-04-07T09:27:53.392Z,6.00
2018-04-07T09:30:28.290Z,6.00
2018-04-07T09:33:03.183Z,6.67
2018-04-07T09:35:38.099Z,6.47
2018-04-07T09:38:12.913Z,6.50
2018-04-07T09:40:48.184Z,5.93
2018-04-07T09:43:23.226Z,5.37
2018-04-07T09:45:58.083Z,5.43
2018-04-07T09:48:32.770Z,4.07
2018-04-07T09:51:07.929Z,6.37
2018-04-07T09:53:42.978Z,6.67
2018-04-07T09:56:18.160Z,4.78
2018-04-07T09:58:52.990Z,5.80
2018-04-07T10:01:29.503Z,7.50
2018-04-07T10:04:04.290Z,5.90
2018-04-07T10:06:39.178Z,5.97
2018-04-07T10:09:14.017Z,6.47
2018-04-07T10:11:48.435Z,6.72
2018-04-07T10:14:23.546Z,7.30
2018-04-07T10:16:58.941Z,6.97
2018-04-07T10:19:34.023Z,6.87
2018-04-07T10:22:08.551Z,6.23
2018-04-07T10:24:43.405Z,6.83
2018-04-07T10:27:18.398Z,7.50
2018-04-07T10:29:53.162Z,7.40
2018-04-07T10:32:28.358Z,7.17
2018-04-07T10:35:03.094Z,7.50
2018-04-07T10:37:38.198Z,7.80
2018-04-07T10:40:12.802Z,7.57
2018-04-07T10:42:48.215Z,7.20
2018-04-07T10:45:23.304Z,7.03
2018-04-07T10:47:58.187Z,7.30
2018-04-07T10:50:33.227Z,7.60
2018-04-07T10:53:08.153Z,7.40
2018-04-07T10:55:43.125Z,9.20
2018-04-07T10:58:18.459Z,8.43
2018-04-07T11:00:53.361Z,7.67
2018-04-07T11:03:28.345Z,7.35
2018-04-07T11:06:03.385Z,8.67
2018-04-07T11:08:38.242Z,7.50
2018-04-07T11:11:13.610Z,6.77
2018-04-07T11:13:48.401Z,6.40
2018-04-07T11:16:23.445Z,7.47
2018-04-07T11:18:58.307Z,7.47
2018-04-07T11:21:33.299Z,8.40
2018-04-07T11:24:08.296Z,7.53
2018-04-07T11:26:43.266Z,7.10
2018-04-07T11:29:17.843Z,8.47
2018-04-07T11:31:53.265Z,7.13
2018-04-07T11:34:28.426Z,6.80
2018-04-07T11:37:03.425Z,6.80
2018-04-07T11:39:38.343Z,7.57
2018-04-07T11:42:13.323Z,7.53
2018-04-07T11:44:48.444Z,7.70
2018-04-07T11:47:23.795Z,8.67
2018-04-07T11:49:58.807Z,7.83
2018-04-07T11:52:33.490Z,6.83
2018-04-07T11:55:08.758Z,8.10
2018-04-07T11:57:43.435Z,8.07
2018-04-07T12:00:18.464Z,7.77
2018-04-07T12:02:53.568Z,7.07
2018-04-07T12:05:28.360Z,8.00
2018-04-07T12:08:02.751Z,7.40
2018-04-07T12:10:37.817Z,6.80
2018-04-07T12:13:12.707Z,7.43
2018-04-07T12:15:47.523Z,7.43
2018-04-07T12:18:22.443Z,7.67
2018-04-07T12:20:57.418Z,9.53
2018-04-07T12:23:32.406Z,9.13
2018-04-07T12:26:07.379Z,6.90
2018-04-07T12:28:42.390Z,7.33
2018-04-07T12:31:17.865Z,8.40
2018-04-07T12:33:52.971Z,9.00
2018-04-07T12:36:28.654Z,8.03
2018-04-07T12:39:03.007Z,7.60
2018-04-07T12:41:38.040Z,7.77
2018-04-07T12:44:14.271Z,7.93
2018-04-07T12:46:49.352Z,8.60
2018-04-07T12:49:24.236Z,8.17
2018-04-07T12:51:58.932Z,7.93
2018-04-07T12:54:33.816Z,7.30
2018-04-07T12:57:10.467Z,7.47
2018-04-07T12:59:44.863Z,7.40
2018-04-07T13:02:19.858Z,7.80
2018-04-07T13:04:55.517Z,8.40
2018-04-07T13:07:30.510Z,8.10
2018-04-07T13:10:05.418Z,7.97
2018-04-07T13:12:40.932Z,7.50
2018-04-07T13:15:15.799Z,7.50
2018-04-07T13:17:50.547Z,8.33
2018-04-07T13:20:25.986Z,8.70
2018-04-07T13:23:00.641Z,8.53
2018-04-07T13:25:35.722Z,8.40
2018-04-07T13:28:10.528Z,7.47
2018-04-07T13:30:45.410Z,8.43
2018-04-07T13:33:20.644Z,8.30
2018-04-07T13:35:55.819Z,8.20
2018-04-07T13:38:30.898Z,8.90
2018-04-07T13:41:06.471Z,8.00
2018-04-07T13:43:41.560Z,7.43
2018-04-07T13:46:16.812Z,7.68
2018-04-07T13:48:51.699Z,6.60
2018-04-07T13:51:26.574Z,7.90
2018-04-07T13:54:01.658Z,7.20
2018-04-07T13:56:36.139Z,8.10
2018-04-07T13:59:11.224Z,7.63
2018-04-07T14:01:46.136Z,8.30
2018-04-07T14:04:21.723Z,7.97
2018-04-07T14:06:57.060Z,8.67
2018-04-07T14:09:32.078Z,9.67
2018-04-07T14:12:07.291Z,8.40
2018-04-07T14:14:42.270Z,9.23
2018-04-07T14:17:17.158Z,9.48
2018-04-07T14:19:52.653Z,9.10
2018-04-07T14:22:27.974Z,8.88
2018-04-07T14:25:03.326Z,9.40
2018-04-07T14:27:38.224Z,9.20
2018-04-07T14:30:13.723Z,8.73
2018-04-07T14:32:48.810Z,9.10
2018-04-07T14:35:24.210Z,9.73
2018-04-07T14:37:58.788Z,9.70
2018-04-07T14:40:33.893Z,8.50
2018-04-07T14:43:08.859Z,8.30
2018-04-07T14:45:43.816Z,8.20
2018-04-07T14:48:19.018Z,8.43
2018-04-07T14:50:53.814Z,8.70
2018-04-07T14:53:28.954Z,9.27
2018-04-07T14:56:03.790Z,9.30
2018-04-07T14:58:38.969Z,9.57
2018-04-07T15:01:14.162Z,8.80
2018-04-07T15:03:48.910Z,8.63
2018-04-07T15:06:23.983Z,9.20
2018-04-07T15:08:58.834Z,7.93
2018-04-07T15:11:34.127Z,9.00
2018-04-07T15:14:09.166Z,8.70
2018-04-07T15:16:44.418Z,8.17
2018-04-07T15:19:19.878Z,8.20
2018-04-07T15:21:54.867Z,8.20
2018-04-07T15:24:29.925Z,8.30
2018-04-07T15:27:05.294Z,8.00
2018-04-07T15:29:39.974Z,7.90
2018-04-07T15:32:15.187Z,8.57
2018-04-07T15:34:49.979Z,8.70
2018-04-07T15:37:25.281Z,9.45
2018-04-07T15:40:00.095Z,8.47
2018-04-07T15:42:35.366Z,10.10
2018-04-07T15:45:10.943Z,11.70
2018-04-07T15:47:45.911Z,135.73
2018-04-07T15:50:20.505Z,208.67
2018-04-07T15:52:55.485Z,51.20
2018-04-07T15:55:30.631Z,77.83
2018-04-07T15:58:06.587Z,77.37
2018-04-07T16:00:41.642Z,14.27
2018-04-07T16:03:16.449Z,76.10
2018-04-07T16:05:51.141Z,98.77
2018-04-07T16:08:26.809Z,65.72
2018-04-07T16:11:01.664Z,18.30
2018-04-07T16:13:36.475Z,20.20
2018-04-07T16:16:11.386Z,86.03
2018-04-07T16:18:46.583Z,29.83
2018-04-07T16:21:21.241Z,10.80
2018-04-07T16:23:55.638Z,15.27
2018-04-07T16:26:30.527Z,9.13
2018-04-07T16:29:05.090Z,18.13
2018-04-07T16:31:40.092Z,9.97
2018-04-07T16:34:14.788Z,25.47
2018-04-07T16:36:49.675Z,10.30
2018-04-07T16:39:24.922Z,11.65
2018-04-07T16:41:59.683Z,29.13
2018-04-07T16:44:35.126Z,10.50
2018-04-07T16:47:10.090Z,9.60
2018-04-07T16:49:45.073Z,9.30
2018-04-07T16:52:20.420Z,18.03
2018-04-07T16:54:55.586Z,9.63
2018-04-07T16:57:30.270Z,11.13
2018-04-07T17:00:04.429Z,8.70
2018-04-07T17:02:40.033Z,8.50
2018-04-07T17:05:14.622Z,9.10
2018-04-07T17:07:49.402Z,9.07
2018-04-07T17:10:24.563Z,8.07
2018-04-07T17:12:59.356Z,7.70
2018-04-07T17:15:34.391Z,7.93
2018-04-07T17:18:09.315Z,7.83
2018-04-07T17:20:44.067Z,7.80
2018-04-07T17:23:19.198Z,7.40
2018-04-07T17:25:53.704Z,8.10
2018-04-07T17:28:29.294Z,8.20
2018-04-07T17:31:04.567Z,7.30
2018-04-07T17:33:39.460Z,7.80
2018-04-07T17:36:14.226Z,8.38
2018-04-07T17:38:49.147Z,8.13
2018-04-07T17:41:23.520Z,8.02
2018-04-07T17:43:58.547Z,7.33
2018-04-07T17:46:33.571Z,7.80
2018-04-07T17:49:08.426Z,7.43
2018-04-07T17:51:43.383Z,8.17
2018-04-07T17:54:18.541Z,6.93
2018-04-07T17:56:53.568Z,7.70
2018-04-07T17:59:28.581Z,7.30
2018-04-07T18:02:03.541Z,7.23
2018-04-07T18:04:38.528Z,6.47
2018-04-07T18:07:13.723Z,6.77
2018-04-07T18:09:48.804Z,6.53
2018-04-07T18:12:23.829Z,6.87
2018-04-07T18:14:58.857Z,6.97
2018-04-07T18:17:34.687Z,6.30
2018-04-07T18:20:09.370Z,7.10
2018-04-07T18:22:44.341Z,7.33
2018-04-07T18:25:19.614Z,7.60
2018-04-07T18:27:54.476Z,6.87
2018-04-07T18:30:29.589Z,7.22
2018-04-07T18:33:04.438Z,6.50
2018-04-07T18:35:39.425Z,7.90
2018-04-07T18:38:14.287Z,7.37
2018-04-07T18:40:49.266Z,8.50
2018-04-07T18:43:24.667Z,7.87
2018-04-07T18:45:59.532Z,7.37
2018-04-07T18:48:34.195Z,7.70
2018-04-07T18:51:08.562Z,7.37
2018-04-07T18:53:43.415Z,7.00
2018-04-07T18:56:18.706Z,7.90
2018-04-07T18:58:53.129Z,7.57
2018-04-07T19:01:28.477Z,8.47
2018-04-07T19:04:03.606Z,7.50
2018-04-07T19:06:38.672Z,8.37
2018-04-07T19:09:13.402Z,8.20
2018-04-07T19:11:48.311Z,14.03
2018-04-07T19:14:23.474Z,8.00
2018-04-07T19:16:58.647Z,6.50
2018-04-07T19:19:33.672Z,7.80
2018-04-07T19:22:08.640Z,8.10
2018-04-07T19:24:43.390Z,7.33
2018-04-07T19:27:18.876Z,7.57
2018-04-07T19:29:53.595Z,7.10
2018-04-07T19:32:28.568Z,7.32
2018-04-07T19:35:03.557Z,7.57
2018-04-07T19:37:38.646Z,7.20
2018-04-07T19:40:13.947Z,7.10
2018-04-07T19:42:48.613Z,7.37
2018-04-07T19:45:23.194Z,8.83
2018-04-07T19:47:59.785Z,7.90
2018-04-07T19:50:34.833Z,7.67
2018-04-07T19:53:09.846Z,8.40
2018-04-07T19:55:44.941Z,8.27
2018-04-07T19:58:19.857Z,8.52
2018-04-07T20:00:54.771Z,9.20
2018-04-07T20:03:29.977Z,8.70
2018-04-07T20:06:04.699Z,8.13
2018-04-07T20:08:39.685Z,8.70
2018-04-07T20:11:15.183Z,8.87
2018-04-07T20:13:50.132Z,9.20
2018-04-07T20:16:25.456Z,7.97
2018-04-07T20:19:00.244Z,11.20
2018-04-07T20:21:35.381Z,11.80
2018-04-07T20:24:10.858Z,9.27
2018-04-07T20:26:45.706Z,8.97
2018-04-07T20:29:20.798Z,10.00
2018-04-07T20:31:56.168Z,9.50
2018-04-07T20:34:31.059Z,9.35
2018-04-07T20:37:05.122Z,9.20
2018-04-07T20:39:40.223Z,10.40
2018-04-07T20:42:26.134Z,9.23
2018-04-07T20:45:01.054Z,9.63
2018-04-07T20:47:35.701Z,8.50
2018-04-07T20:50:10.185Z,9.87
2018-04-07T20:52:45.297Z,9.23
2018-04-07T20:55:20.044Z,9.15
2018-04-07T20:57:54.919Z,9.10
2018-04-07T21:00:30.132Z,8.97
2018-04-07T21:03:05.111Z,8.90
2018-04-07T21:05:39.910Z,9.07
2018-04-07T21:08:14.858Z,9.37
2018-04-07T21:10:49.577Z,9.20
2018-04-07T21:13:24.838Z,9.07
2018-04-07T21:15:59.806Z,9.23
2018-04-07T21:18:34.447Z,8.90
2018-04-07T21:21:09.948Z,8.10
2018-04-07T21:23:45.342Z,9.63
2018-04-07T21:26:20.337Z,9.80
2018-04-07T21:28:55.074Z,9.00
2018-04-07T21:31:30.516Z,10.02
2018-04-07T21:34:05.510Z,9.13
2018-04-07T21:36:40.431Z,10.10
2018-04-07T21:39:15.003Z,8.87
2018-04-07T21:41:49.948Z,9.60
2018-04-07T21:44:25.015Z,10.65
2018-04-07T21:46:59.938Z,8.50
2018-04-07T21:49:34.935Z,8.97
2018-04-07T21:52:09.752Z,10.00
2018-04-07T21:54:45.017Z,9.40
2018-04-07T21:57:19.911Z,9.60
2018-04-07T21:59:54.424Z,8.87
2018-04-07T22:02:29.221Z,9.40
2018-04-07T22:05:03.642Z,9.37
2018-04-07T22:07:38.452Z,8.70
2018-04-07T22:10:13.799Z,9.65
2018-04-07T22:12:48.042Z,9.03
2018-04-07T22:15:23.483Z,9.57
2018-04-07T22:17:58.082Z,8.13
2018-04-07T22:20:32.409Z,9.00
2018-04-07T22:23:07.002Z,8.67
2018-04-07T22:25:41.729Z,8.13
2018-04-07T22:28:16.704Z,8.20
2018-04-07T22:30:51.290Z,9.20
2018-04-07T22:33:26.341Z,8.90
2018-04-07T22:36:01.711Z,9.57
2018-04-07T22:38:36.791Z,9.70
2018-04-07T22:41:12.107Z,8.60
2018-04-07T22:43:46.514Z,9.27
2018-04-07T22:46:21.716Z,9.47
2018-04-07T22:48:55.860Z,8.47
2018-04-07T22:51:30.465Z,8.73
2018-04-07T22:54:05.165Z,8.77
2018-04-07T22:56:40.378Z,8.17
2018-04-07T22:59:15.947Z,8.48
2018-04-07T23:01:51.035Z,8.98
2018-04-07T23:04:25.623Z,9.20
2018-04-07T23:07:01.102Z,8.32
2018-04-07T23:09:36.175Z,9.73
2018-04-07T23:12:10.931Z,8.53
2018-04-07T23:14:46.143Z,7.77
2018-04-07T23:17:21.370Z,8.63
2018-04-07T23:19:56.181Z,8.20
2018-04-07T23:22:31.425Z,7.70
2018-04-07T23:25:06.095Z,7.57
2018-04-07T23:27:41.238Z,7.43
2018-04-07T23:30:16.211Z,7.27
2018-04-07T23:32:50.967Z,6.90
2018-04-07T23:35:26.242Z,6.55
2018-04-07T23:38:01.171Z,8.07
2018-04-07T23:40:36.226Z,6.53
2018-04-07T23:43:11.453Z,7.10
2018-04-07T23:45:46.788Z,6.63
2018-04-07T23:48:21.960Z,7.23
2018-04-07T23:50:57.127Z,7.10
2018-04-07T23:53:32.586Z,5.70
2018-04-07T23:56:08.155Z,7.22
2018-04-07T23:58:43.439Z,7.30
